MMZH/ZIH METAR and TAF weather

Enter ICAO airport designator
Station Type Date Time Source
MMZH METAR 2018/12/12 02:41 UTC NOAA

MMZH 120241Z 00000KT 7SM SKC 26/23 A2998 RMK SLP143 52016 910 HZY


Station Type Date Time Source
MMZH Decoded METAR 2018/12/12 02:41 UTC NOAA

Ixtapa-Zihuatanejo, Mexico (MMZH) 17-36N 101-28W
Dec 11, 2018 - 09:41 PM EST / 2018.12.12 0241 UTC
Wind: Calm:0
Visibility: 7 mile(s):0
Sky conditions: clear
Temperature: 78 F (26 C)
Dew Point: 73 F (23 C)
Relative Humidity: 83%
Pressure (altimeter): 29.98 in. Hg (1015 hPa)
Pressure tendency: 0.05 inches (1.6 hPa) higher than three hours ago
ob: MMZH 120241Z 00000KT 7SM SKC 26/23 A2998 RMK SLP143 52016 910 HZY
cycle: 2

Station Type Date Time Source
MMZH TAF 2018/12/12 06:59 UTC NOAA

TAF MMZH 120457Z 1206/1306 00000KT 6SM HZ BKN200
FM121800 22010KT 6SM HZ SCT020 BKN200
FM130300 23005KT 6SM HZ BKN200


Example: see airport list